sensor_id;sensor_type;location;lat;lon;timestamp;temperature;humidity
22568;DHT22;11450;50.818;4.382;2022-11-15T00:01:16;12.00;99.90
22568;DHT22;11450;50.818;4.382;2022-11-15T00:03:43;12.00;99.90
22568;DHT22;11450;50.818;4.382;2022-11-15T00:06:09;12.10;99.90
22568;DHT22;11450;50.818;4.382;2022-11-15T00:08:34;12.10;99.90
22568;DHT22;11450;50.818;4.382;2022-11-15T00:11:01;12.20;99.90
22568;DHT22;11450;50.818;4.382;2022-11-15T00:13:27;12.10;99.90
22568;DHT22;11450;50.818;4.382;2022-11-15T00:15:57;12.10;99.90
22568;DHT22;11450;50.818;4.382;2022-11-15T00:18:23;12.10;99.90
22568;DHT22;11450;50.818;4.382;2022-11-15T00:20:49;12.10;99.90
22568;DHT22;11450;50.818;4.382;2022-11-15T00:23:15;12.20;99.90
22568;DHT22;11450;50.818;4.382;2022-11-15T00:25:40;12.20;99.90
22568;DHT22;11450;50.818;4.382;2022-11-15T00:28:06;12.20;99.90
22568;DHT22;11450;50.818;4.382;2022-11-15T00:30:32;12.20;99.90
22568;DHT22;11450;50.818;4.382;2022-11-15T00:33:04;12.20;99.90
22568;DHT22;11450;50.818;4.382;2022-11-15T00:35:34;12.20;99.90
22568;DHT22;11450;50.818;4.382;2022-11-15T00:38:01;12.20;99.90
22568;DHT22;11450;50.818;4.382;2022-11-15T00:40:26;12.20;99.90
22568;DHT22;11450;50.818;4.382;2022-11-15T00:42:52;12.30;99.90
22568;DHT22;11450;50.818;4.382;2022-11-15T00:45:18;12.30;99.90
22568;DHT22;11450;50.818;4.382;2022-11-15T00:47:45;12.40;99.90
22568;DHT22;11450;50.818;4.382;2022-11-15T00:50:11;12.30;99.90
22568;DHT22;11450;50.818;4.382;2022-11-15T00:52:37;12.40;99.90
22568;DHT22;11450;50.818;4.382;2022-11-15T00:55:02;12.30;99.90
22568;DHT22;11450;50.818;4.382;2022-11-15T00:57:28;12.40;99.90
22568;DHT22;11450;50.818;4.382;2022-11-15T00:59:54;12.40;99.90
22568;DHT22;11450;50.818;4.382;2022-11-15T01:02:19;12.40;99.90
22568;DHT22;11450;50.818;4.382;2022-11-15T01:04:45;12.40;99.90
22568;DHT22;11450;50.818;4.382;2022-11-15T01:07:11;12.40;99.90
22568;DHT22;11450;50.818;4.382;2022-11-15T01:09:37;12.30;99.90
22568;DHT22;11450;50.818;4.382;2022-11-15T01:12:02;12.30;99.90
22568;DHT22;11450;50.818;4.382;2022-11-15T01:14:29;12.40;99.90
22568;DHT22;11450;50.818;4.382;2022-11-15T01:16:57;12.20;99.90
22568;DHT22;11450;50.818;4.382;2022-11-15T01:19:23;12.40;99.90
22568;DHT22;11450;50.818;4.382;2022-11-15T01:21:49;12.40;99.90
22568;DHT22;11450;50.818;4.382;2022-11-15T01:24:15;12.30;99.90
22568;DHT22;11450;50.818;4.382;2022-11-15T01:26:41;12.30;99.90
22568;DHT22;11450;50.818;4.382;2022-11-15T01:29:06;12.20;99.90
22568;DHT22;11450;50.818;4.382;2022-11-15T01:31:32;12.20;99.90
22568;DHT22;11450;50.818;4.382;2022-11-15T01:33:58;12.30;99.90
22568;DHT22;11450;50.818;4.382;2022-11-15T01:36:23;12.30;99.90
22568;DHT22;11450;50.818;4.382;2022-11-15T01:38:59;12.30;99.90
22568;DHT22;11450;50.818;4.382;2022-11-15T01:41:27;12.30;99.90
22568;DHT22;11450;50.818;4.382;2022-11-15T01:43:55;12.40;99.90
22568;DHT22;11450;50.818;4.382;2022-11-15T01:46:47;12.30;99.90
22568;DHT22;11450;50.818;4.382;2022-11-15T01:49:18;12.20;99.90
22568;DHT22;11450;50.818;4.382;2022-11-15T01:51:45;12.30;99.90
22568;DHT22;11450;50.818;4.382;2022-11-15T01:54:14;12.30;99.90
22568;DHT22;11450;50.818;4.382;2022-11-15T01:56:46;12.30;99.90
22568;DHT22;11450;50.818;4.382;2022-11-15T01:59:14;12.30;99.90
22568;DHT22;11450;50.818;4.382;2022-11-15T02:01:40;12.30;99.90
22568;DHT22;11450;50.818;4.382;2022-11-15T02:04:37;12.20;99.90
22568;DHT22;11450;50.818;4.382;2022-11-15T02:07:05;12.30;99.90
22568;DHT22;11450;50.818;4.382;2022-11-15T02:09:32;12.20;99.90
22568;DHT22;11450;50.818;4.382;2022-11-15T02:11:59;12.20;99.90
22568;DHT22;11450;50.818;4.382;2022-11-15T02:14:27;12.20;99.90
22568;DHT22;11450;50.818;4.382;2022-11-15T02:16:58;12.20;99.90
22568;DHT22;11450;50.818;4.382;2022-11-15T02:27:29;12.20;99.90
22568;DHT22;11450;50.818;4.382;2022-11-15T02:30:36;12.30;99.90
22568;DHT22;11450;50.818;4.382;2022-11-15T02:33:03;12.30;99.90
22568;DHT22;11450;50.818;4.382;2022-11-15T02:35:46;12.30;99.90
22568;DHT22;11450;50.818;4.382;2022-11-15T02:41:11;12.30;99.90
22568;DHT22;11450;50.818;4.382;2022-11-15T02:43:59;12.30;99.90
22568;DHT22;11450;50.818;4.382;2022-11-15T02:46:34;12.30;99.90
22568;DHT22;11450;50.818;4.382;2022-11-15T02:49:20;12.30;99.90
22568;DHT22;11450;50.818;4.382;2022-11-15T02:51:47;12.30;99.90
22568;DHT22;11450;50.818;4.382;2022-11-15T02:54:18;12.30;99.90
22568;DHT22;11450;50.818;4.382;2022-11-15T02:56:45;12.40;99.90
22568;DHT22;11450;50.818;4.382;2022-11-15T03:02:23;12.30;99.90
22568;DHT22;11450;50.818;4.382;2022-11-15T03:05:09;12.20;99.90
22568;DHT22;11450;50.818;4.382;2022-11-15T03:10:10;12.20;99.90
22568;DHT22;11450;50.818;4.382;2022-11-15T03:13:02;12.20;99.90
22568;DHT22;11450;50.818;4.382;2022-11-15T03:15:32;12.20;99.90
22568;DHT22;11450;50.818;4.382;2022-11-15T03:18:17;12.20;99.90
22568;DHT22;11450;50.818;4.382;2022-11-15T03:20:44;12.20;99.90
22568;DHT22;11450;50.818;4.382;2022-11-15T03:23:11;12.20;99.90
22568;DHT22;11450;50.818;4.382;2022-11-15T03:25:44;12.20;99.90
22568;DHT22;11450;50.818;4.382;2022-11-15T03:28:15;12.30;99.90
22568;DHT22;11450;50.818;4.382;2022-11-15T03:30:44;12.20;99.90
22568;DHT22;11450;50.818;4.382;2022-11-15T03:33:11;12.20;99.90
22568;DHT22;11450;50.818;4.382;2022-11-15T03:35:40;12.20;99.90
22568;DHT22;11450;50.818;4.382;2022-11-15T03:38:21;12.20;99.90
22568;DHT22;11450;50.818;4.382;2022-11-15T03:41:11;12.20;99.90
22568;DHT22;11450;50.818;4.382;2022-11-15T03:46:44;12.10;99.90
22568;DHT22;11450;50.818;4.382;2022-11-15T03:49:15;12.10;99.90
22568;DHT22;11450;50.818;4.382;2022-11-15T03:51:42;12.10;99.90
22568;DHT22;11450;50.818;4.382;2022-11-15T03:54:08;12.10;99.90
22568;DHT22;11450;50.818;4.382;2022-11-15T03:56:34;12.10;99.90
22568;DHT22;11450;50.818;4.382;2022-11-15T03:59:00;12.00;99.90
22568;DHT22;11450;50.818;4.382;2022-11-15T04:01:25;12.10;99.90
22568;DHT22;11450;50.818;4.382;2022-11-15T04:03:51;12.10;99.90
22568;DHT22;11450;50.818;4.382;2022-11-15T04:06:17;12.10;99.90
22568;DHT22;11450;50.818;4.382;2022-11-15T04:08:42;12.00;99.90
22568;DHT22;11450;50.818;4.382;2022-11-15T04:11:08;12.10;99.90
22568;DHT22;11450;50.818;4.382;2022-11-15T04:13:33;12.00;99.90
22568;DHT22;11450;50.818;4.382;2022-11-15T04:15:59;11.90;99.90
22568;DHT22;11450;50.818;4.382;2022-11-15T04:18:25;12.00;99.90
22568;DHT22;11450;50.818;4.382;2022-11-15T04:20:50;12.10;99.90
22568;DHT22;11450;50.818;4.382;2022-11-15T04:23:34;12.00;99.90
22568;DHT22;11450;50.818;4.382;2022-11-15T04:26:32;12.00;99.90
22568;DHT22;11450;50.818;4.382;2022-11-15T04:28:58;12.10;99.90
22568;DHT22;11450;50.818;4.382;2022-11-15T04:31:42;12.00;99.90
22568;DHT22;11450;50.818;4.382;2022-11-15T04:34:09;12.00;99.90
22568;DHT22;11450;50.818;4.382;2022-11-15T04:36:35;12.00;99.90
22568;DHT22;11450;50.818;4.382;2022-11-15T04:39:19;11.90;99.90
22568;DHT22;11450;50.818;4.382;2022-11-15T04:41:44;11.90;99.90
22568;DHT22;11450;50.818;4.382;2022-11-15T04:44:10;11.80;99.90
22568;DHT22;11450;50.818;4.382;2022-11-15T04:46:36;11.80;99.90
22568;DHT22;11450;50.818;4.382;2022-11-15T04:49:01;11.80;99.90
22568;DHT22;11450;50.818;4.382;2022-11-15T04:51:27;11.80;99.90
22568;DHT22;11450;50.818;4.382;2022-11-15T04:53:53;11.80;99.90
22568;DHT22;11450;50.818;4.382;2022-11-15T04:56:18;11.70;99.90
22568;DHT22;11450;50.818;4.382;2022-11-15T04:58:44;11.70;99.90
22568;DHT22;11450;50.818;4.382;2022-11-15T05:01:11;11.70;99.90
22568;DHT22;11450;50.818;4.382;2022-11-15T05:03:37;11.60;99.90
22568;DHT22;11450;50.818;4.382;2022-11-15T05:06:22;11.60;99.90
22568;DHT22;11450;50.818;4.382;2022-11-15T05:08:48;11.50;99.90
22568;DHT22;11450;50.818;4.382;2022-11-15T05:11:13;11.50;99.90
22568;DHT22;11450;50.818;4.382;2022-11-15T05:13:39;11.60;99.90
22568;DHT22;11450;50.818;4.382;2022-11-15T05:16:04;11.60;99.90
22568;DHT22;11450;50.818;4.382;2022-11-15T05:18:30;11.40;99.90
22568;DHT22;11450;50.818;4.382;2022-11-15T05:20:56;11.30;99.90
22568;DHT22;11450;50.818;4.382;2022-11-15T05:23:21;11.40;99.90
22568;DHT22;11450;50.818;4.382;2022-11-15T05:25:47;11.30;99.90
22568;DHT22;11450;50.818;4.382;2022-11-15T05:28:13;11.20;99.90
22568;DHT22;11450;50.818;4.382;2022-11-15T05:30:38;11.30;99.90
22568;DHT22;11450;50.818;4.382;2022-11-15T05:33:04;11.20;99.90
22568;DHT22;11450;50.818;4.382;2022-11-15T05:35:54;11.20;99.90
22568;DHT22;11450;50.818;4.382;2022-11-15T05:38:21;11.20;99.90
22568;DHT22;11450;50.818;4.382;2022-11-15T05:40:47;11.20;99.90
22568;DHT22;11450;50.818;4.382;2022-11-15T05:43:12;11.20;99.90
22568;DHT22;11450;50.818;4.382;2022-11-15T05:45:38;11.10;99.90
22568;DHT22;11450;50.818;4.382;2022-11-15T05:48:06;11.20;99.90
22568;DHT22;11450;50.818;4.382;2022-11-15T05:50:35;11.10;99.90
22568;DHT22;11450;50.818;4.382;2022-11-15T05:53:01;11.10;99.90
22568;DHT22;11450;50.818;4.382;2022-11-15T05:55:27;11.00;99.90
22568;DHT22;11450;50.818;4.382;2022-11-15T05:57:53;11.10;99.90
22568;DHT22;11450;50.818;4.382;2022-11-15T06:00:19;11.00;99.90
22568;DHT22;11450;50.818;4.382;2022-11-15T06:02:44;11.00;99.90
22568;DHT22;11450;50.818;4.382;2022-11-15T06:05:11;11.00;99.90
22568;DHT22;11450;50.818;4.382;2022-11-15T06:07:41;10.90;99.90
22568;DHT22;11450;50.818;4.382;2022-11-15T06:10:07;10.90;99.90
22568;DHT22;11450;50.818;4.382;2022-11-15T06:12:33;10.90;99.90
22568;DHT22;11450;50.818;4.382;2022-11-15T06:14:59;11.00;99.90
22568;DHT22;11450;50.818;4.382;2022-11-15T06:17:24;10.90;99.90
22568;DHT22;11450;50.818;4.382;2022-11-15T06:19:50;10.80;99.90
22568;DHT22;11450;50.818;4.382;2022-11-15T06:22:15;10.90;99.90
22568;DHT22;11450;50.818;4.382;2022-11-15T06:24:43;10.80;99.90
22568;DHT22;11450;50.818;4.382;2022-11-15T06:27:11;10.80;99.90
22568;DHT22;11450;50.818;4.382;2022-11-15T06:29:37;10.70;99.90
22568;DHT22;11450;50.818;4.382;2022-11-15T06:32:02;10.70;99.90
22568;DHT22;11450;50.818;4.382;2022-11-15T06:34:28;10.70;99.90
22568;DHT22;11450;50.818;4.382;2022-11-15T06:36:54;10.70;99.90
22568;DHT22;11450;50.818;4.382;2022-11-15T06:39:19;10.70;99.90
22568;DHT22;11450;50.818;4.382;2022-11-15T06:41:45;10.70;99.90
22568;DHT22;11450;50.818;4.382;2022-11-15T06:44:11;10.70;99.90
22568;DHT22;11450;50.818;4.382;2022-11-15T06:46:36;10.60;99.90
22568;DHT22;11450;50.818;4.382;2022-11-15T06:49:11;10.60;99.90
22568;DHT22;11450;50.818;4.382;2022-11-15T06:51:37;10.60;99.90
22568;DHT22;11450;50.818;4.382;2022-11-15T06:54:03;10.70;99.90
22568;DHT22;11450;50.818;4.382;2022-11-15T06:56:28;10.60;99.90
22568;DHT22;11450;50.818;4.382;2022-11-15T06:58:55;10.70;99.90
22568;DHT22;11450;50.818;4.382;2022-11-15T07:01:20;10.60;99.90
22568;DHT22;11450;50.818;4.382;2022-11-15T07:03:55;10.50;99.90
22568;DHT22;11450;50.818;4.382;2022-11-15T07:06:21;10.50;99.90
22568;DHT22;11450;50.818;4.382;2022-11-15T07:08:46;10.40;99.90
22568;DHT22;11450;50.818;4.382;2022-11-15T07:11:12;10.50;99.90
22568;DHT22;11450;50.818;4.382;2022-11-15T07:13:38;10.50;99.90
22568;DHT22;11450;50.818;4.382;2022-11-15T07:16:07;10.40;99.90
22568;DHT22;11450;50.818;4.382;2022-11-15T07:18:34;10.40;99.90
22568;DHT22;11450;50.818;4.382;2022-11-15T07:21:05;10.40;99.90
22568;DHT22;11450;50.818;4.382;2022-11-15T07:23:31;10.50;99.90
22568;DHT22;11450;50.818;4.382;2022-11-15T07:25:57;10.50;99.90
22568;DHT22;11450;50.818;4.382;2022-11-15T07:28:24;10.50;99.90
22568;DHT22;11450;50.818;4.382;2022-11-15T07:30:50;10.50;99.90
22568;DHT22;11450;50.818;4.382;2022-11-15T07:33:16;10.50;99.90
22568;DHT22;11450;50.818;4.382;2022-11-15T07:35:41;10.50;99.90
22568;DHT22;11450;50.818;4.382;2022-11-15T07:38:08;10.50;99.90
22568;DHT22;11450;50.818;4.382;2022-11-15T07:40:34;10.50;99.90
22568;DHT22;11450;50.818;4.382;2022-11-15T07:43:05;10.40;99.90
22568;DHT22;11450;50.818;4.382;2022-11-15T07:45:30;10.30;99.90
22568;DHT22;11450;50.818;4.382;2022-11-15T07:47:59;10.30;99.90
22568;DHT22;11450;50.818;4.382;2022-11-15T07:50:25;10.40;99.90
22568;DHT22;11450;50.818;4.382;2022-11-15T07:52:55;10.30;99.90
22568;DHT22;11450;50.818;4.382;2022-11-15T07:55:23;10.40;99.90
22568;DHT22;11450;50.818;4.382;2022-11-15T07:57:49;10.40;99.90
22568;DHT22;11450;50.818;4.382;2022-11-15T08:00:15;10.40;99.90
22568;DHT22;11450;50.818;4.382;2022-11-15T08:02:41;10.40;99.90
22568;DHT22;11450;50.818;4.382;2022-11-15T08:05:07;10.40;99.90
22568;DHT22;11450;50.818;4.382;2022-11-15T08:07:33;10.40;99.90
22568;DHT22;11450;50.818;4.382;2022-11-15T08:09:59;10.40;99.90
22568;DHT22;11450;50.818;4.382;2022-11-15T08:12:27;10.30;99.90
22568;DHT22;11450;50.818;4.382;2022-11-15T08:14:54;10.30;99.90
22568;DHT22;11450;50.818;4.382;2022-11-15T08:17:21;10.40;99.90
22568;DHT22;11450;50.818;4.382;2022-11-15T08:19:47;10.40;99.90
22568;DHT22;11450;50.818;4.382;2022-11-15T08:22:13;10.50;99.90
22568;DHT22;11450;50.818;4.382;2022-11-15T08:24:39;10.50;99.90
22568;DHT22;11450;50.818;4.382;2022-11-15T08:27:05;10.40;99.90
22568;DHT22;11450;50.818;4.382;2022-11-15T08:29:44;10.50;99.90
22568;DHT22;11450;50.818;4.382;2022-11-15T08:32:11;10.50;99.90
22568;DHT22;11450;50.818;4.382;2022-11-15T08:34:38;10.50;99.90
22568;DHT22;11450;50.818;4.382;2022-11-15T08:37:05;10.60;99.90
22568;DHT22;11450;50.818;4.382;2022-11-15T08:39:31;10.50;99.90
22568;DHT22;11450;50.818;4.382;2022-11-15T08:41:56;10.60;99.90
22568;DHT22;11450;50.818;4.382;2022-11-15T08:44:22;10.70;99.90
22568;DHT22;11450;50.818;4.382;2022-11-15T08:46:49;10.70;99.90
22568;DHT22;11450;50.818;4.382;2022-11-15T08:49:15;10.60;99.90
22568;DHT22;11450;50.818;4.382;2022-11-15T08:51:41;10.70;99.90
22568;DHT22;11450;50.818;4.382;2022-11-15T08:54:07;10.60;99.90
22568;DHT22;11450;50.818;4.382;2022-11-15T08:56:33;10.70;99.90
22568;DHT22;11450;50.818;4.382;2022-11-15T08:58:58;10.70;99.90
22568;DHT22;11450;50.818;4.382;2022-11-15T09:01:24;10.70;99.90
22568;DHT22;11450;50.818;4.382;2022-11-15T09:03:49;10.70;99.90
22568;DHT22;11450;50.818;4.382;2022-11-15T09:06:16;10.80;99.90
22568;DHT22;11450;50.818;4.382;2022-11-15T09:08:42;10.80;99.90
22568;DHT22;11450;50.818;4.382;2022-11-15T09:11:09;10.90;99.90
22568;DHT22;11450;50.818;4.382;2022-11-15T09:13:35;10.80;99.90
22568;DHT22;11450;50.818;4.382;2022-11-15T09:16:03;10.80;99.90
22568;DHT22;11450;50.818;4.382;2022-11-15T09:18:29;10.80;99.90
22568;DHT22;11450;50.818;4.382;2022-11-15T09:20:56;10.80;99.90
22568;DHT22;11450;50.818;4.382;2022-11-15T09:23:23;10.90;99.90
22568;DHT22;11450;50.818;4.382;2022-11-15T09:25:48;10.90;99.90
22568;DHT22;11450;50.818;4.382;2022-11-15T09:28:14;11.00;99.90
22568;DHT22;11450;50.818;4.382;2022-11-15T09:30:39;11.00;99.90
22568;DHT22;11450;50.818;4.382;2022-11-15T09:33:09;11.00;99.90
22568;DHT22;11450;50.818;4.382;2022-11-15T09:35:35;11.10;99.90
22568;DHT22;11450;50.818;4.382;2022-11-15T09:38:01;11.10;99.90
22568;DHT22;11450;50.818;4.382;2022-11-15T09:40:27;11.20;99.90
22568;DHT22;11450;50.818;4.382;2022-11-15T09:43:09;11.20;99.90
22568;DHT22;11450;50.818;4.382;2022-11-15T09:51:20;11.30;99.90
22568;DHT22;11450;50.818;4.382;2022-11-15T09:54:11;11.30;99.90
22568;DHT22;11450;50.818;4.382;2022-11-15T09:56:41;11.30;99.90
22568;DHT22;11450;50.818;4.382;2022-11-15T10:02:33;11.40;99.90
22568;DHT22;11450;50.818;4.382;2022-11-15T10:05:01;11.40;99.90
22568;DHT22;11450;50.818;4.382;2022-11-15T10:13:23;11.70;99.90
22568;DHT22;11450;50.818;4.382;2022-11-15T10:15:50;11.60;99.90
22568;DHT22;11450;50.818;4.382;2022-11-15T10:21:29;11.70;99.90
22568;DHT22;11450;50.818;4.382;2022-11-15T10:23:58;11.80;99.90
22568;DHT22;11450;50.818;4.382;2022-11-15T10:26:24;11.80;99.90
22568;DHT22;11450;50.818;4.382;2022-11-15T10:28:50;11.90;99.90
22568;DHT22;11450;50.818;4.382;2022-11-15T10:31:27;12.00;99.90
22568;DHT22;11450;50.818;4.382;2022-11-15T10:34:20;12.00;99.90
22568;DHT22;11450;50.818;4.382;2022-11-15T10:36:59;12.10;99.90
22568;DHT22;11450;50.818;4.382;2022-11-15T10:39:27;12.10;99.90
22568;DHT22;11450;50.818;4.382;2022-11-15T10:41:56;12.10;99.90
22568;DHT22;11450;50.818;4.382;2022-11-15T10:44:25;12.20;99.90
22568;DHT22;11450;50.818;4.382;2022-11-15T10:49:32;12.30;99.90
22568;DHT22;11450;50.818;4.382;2022-11-15T10:52:17;12.40;99.90
22568;DHT22;11450;50.818;4.382;2022-11-15T10:54:52;12.50;99.90
22568;DHT22;11450;50.818;4.382;2022-11-15T10:57:24;12.30;99.90
22568;DHT22;11450;50.818;4.382;2022-11-15T11:00:05;12.40;99.90
22568;DHT22;11450;50.818;4.382;2022-11-15T11:02:38;12.50;99.90
22568;DHT22;11450;50.818;4.382;2022-11-15T11:05:42;12.60;99.90
22568;DHT22;11450;50.818;4.382;2022-11-15T11:10:39;12.60;99.90
22568;DHT22;11450;50.818;4.382;2022-11-15T11:13:26;12.50;99.90
22568;DHT22;11450;50.818;4.382;2022-11-15T11:16:34;12.60;99.90
22568;DHT22;11450;50.818;4.382;2022-11-15T11:19:08;12.60;99.90
22568;DHT22;11450;50.818;4.382;2022-11-15T11:21:46;12.80;99.90
22568;DHT22;11450;50.818;4.382;2022-11-15T11:24:44;12.80;99.90
22568;DHT22;11450;50.818;4.382;2022-11-15T11:30:21;12.90;99.90
22568;DHT22;11450;50.818;4.382;2022-11-15T11:33:12;12.90;99.90
22568;DHT22;11450;50.818;4.382;2022-11-15T11:38:48;13.00;99.90
22568;DHT22;11450;50.818;4.382;2022-11-15T11:43:59;13.10;99.90
22568;DHT22;11450;50.818;4.382;2022-11-15T11:52:30;13.20;99.90
22568;DHT22;11450;50.818;4.382;2022-11-15T11:55:03;13.20;99.90
22568;DHT22;11450;50.818;4.382;2022-11-15T11:58:14;13.00;99.90
22568;DHT22;11450;50.818;4.382;2022-11-15T12:00:41;13.10;99.90
22568;DHT22;11450;50.818;4.382;2022-11-15T12:03:14;13.10;99.90
22568;DHT22;11450;50.818;4.382;2022-11-15T12:05:59;13.10;99.90
22568;DHT22;11450;50.818;4.382;2022-11-15T12:08:53;13.10;99.90
22568;DHT22;11450;50.818;4.382;2022-11-15T12:17:11;13.10;99.90
22568;DHT22;11450;50.818;4.382;2022-11-15T12:19:38;13.20;99.90
22568;DHT22;11450;50.818;4.382;2022-11-15T12:28:19;13.30;99.90
22568;DHT22;11450;50.818;4.382;2022-11-15T12:30:54;13.20;99.90
22568;DHT22;11450;50.818;4.382;2022-11-15T12:33:45;13.20;99.90
22568;DHT22;11450;50.818;4.382;2022-11-15T12:38:59;13.10;99.90
22568;DHT22;11450;50.818;4.382;2022-11-15T12:41:27;13.20;99.90
22568;DHT22;11450;50.818;4.382;2022-11-15T12:43:54;13.30;99.90
22568;DHT22;11450;50.818;4.382;2022-11-15T12:51:22;13.20;99.90
22568;DHT22;11450;50.818;4.382;2022-11-15T12:59:57;13.30;99.90
22568;DHT22;11450;50.818;4.382;2022-11-15T13:02:25;13.40;99.90
22568;DHT22;11450;50.818;4.382;2022-11-15T13:04:54;13.50;99.90
22568;DHT22;11450;50.818;4.382;2022-11-15T13:15:39;13.50;99.90
22568;DHT22;11450;50.818;4.382;2022-11-15T13:18:39;13.70;99.90
22568;DHT22;11450;50.818;4.382;2022-11-15T13:21:23;13.60;99.90
22568;DHT22;11450;50.818;4.382;2022-11-15T13:24:13;13.60;99.90
22568;DHT22;11450;50.818;4.382;2022-11-15T13:26:40;13.60;99.90
22568;DHT22;11450;50.818;4.382;2022-11-15T13:29:15;13.60;99.90
22568;DHT22;11450;50.818;4.382;2022-11-15T13:31:43;13.60;99.90
22568;DHT22;11450;50.818;4.382;2022-11-15T13:34:30;13.60;99.90
22568;DHT22;11450;50.818;4.382;2022-11-15T13:36:58;13.50;99.90
22568;DHT22;11450;50.818;4.382;2022-11-15T13:39:32;13.50;99.90
22568;DHT22;11450;50.818;4.382;2022-11-15T13:41:58;13.50;99.90
22568;DHT22;11450;50.818;4.382;2022-11-15T13:44:27;13.50;99.90
22568;DHT22;11450;50.818;4.382;2022-11-15T13:47:13;13.50;99.90
22568;DHT22;11450;50.818;4.382;2022-11-15T13:49:39;13.60;99.90
22568;DHT22;11450;50.818;4.382;2022-11-15T13:52:10;13.70;99.90
22568;DHT22;11450;50.818;4.382;2022-11-15T13:54:59;13.70;99.90
22568;DHT22;11450;50.818;4.382;2022-11-15T13:57:46;13.70;99.90
22568;DHT22;11450;50.818;4.382;2022-11-15T14:00:42;13.70;99.90
22568;DHT22;11450;50.818;4.382;2022-11-15T14:03:18;13.70;99.90
22568;DHT22;11450;50.818;4.382;2022-11-15T14:06:05;13.60;99.90
22568;DHT22;11450;50.818;4.382;2022-11-15T14:08:32;13.60;99.90
22568;DHT22;11450;50.818;4.382;2022-11-15T14:11:17;13.60;99.90
22568;DHT22;11450;50.818;4.382;2022-11-15T14:16:39;13.60;99.90
22568;DHT22;11450;50.818;4.382;2022-11-15T14:19:08;13.60;99.90
22568;DHT22;11450;50.818;4.382;2022-11-15T14:21:35;13.50;99.90
22568;DHT22;11450;50.818;4.382;2022-11-15T14:24:16;13.60;99.90
22568;DHT22;11450;50.818;4.382;2022-11-15T14:26:42;13.60;99.90
22568;DHT22;11450;50.818;4.382;2022-11-15T14:29:26;13.70;99.90
22568;DHT22;11450;50.818;4.382;2022-11-15T14:32:14;13.50;99.90
22568;DHT22;11450;50.818;4.382;2022-11-15T14:34:41;13.50;99.90
22568;DHT22;11450;50.818;4.382;2022-11-15T14:37:31;13.60;99.90
22568;DHT22;11450;50.818;4.382;2022-11-15T14:39:59;13.40;99.90
22568;DHT22;11450;50.818;4.382;2022-11-15T14:42:25;13.40;99.90
22568;DHT22;11450;50.818;4.382;2022-11-15T14:44:51;13.40;99.90
22568;DHT22;11450;50.818;4.382;2022-11-15T14:47:17;13.30;99.90
22568;DHT22;11450;50.818;4.382;2022-11-15T14:49:43;13.30;99.90
22568;DHT22;11450;50.818;4.382;2022-11-15T14:52:30;13.20;99.90
22568;DHT22;11450;50.818;4.382;2022-11-15T14:55:03;13.30;99.90
22568;DHT22;11450;50.818;4.382;2022-11-15T14:57:29;13.20;99.90
22568;DHT22;11450;50.818;4.382;2022-11-15T14:59:55;13.30;99.90
22568;DHT22;11450;50.818;4.382;2022-11-15T15:02:24;13.20;99.90
22568;DHT22;11450;50.818;4.382;2022-11-15T15:04:50;13.20;99.90
22568;DHT22;11450;50.818;4.382;2022-11-15T15:07:31;13.20;99.90
22568;DHT22;11450;50.818;4.382;2022-11-15T15:09:57;13.10;99.90
22568;DHT22;11450;50.818;4.382;2022-11-15T15:12:23;13.20;99.90
22568;DHT22;11450;50.818;4.382;2022-11-15T15:14:50;13.20;99.90
22568;DHT22;11450;50.818;4.382;2022-11-15T15:17:16;13.10;99.90
22568;DHT22;11450;50.818;4.382;2022-11-15T15:19:42;13.00;99.90
22568;DHT22;11450;50.818;4.382;2022-11-15T15:22:17;13.00;99.90
22568;DHT22;11450;50.818;4.382;2022-11-15T15:24:44;13.00;99.90
22568;DHT22;11450;50.818;4.382;2022-11-15T15:27:11;13.00;99.90
22568;DHT22;11450;50.818;4.382;2022-11-15T15:29:37;12.90;99.90
22568;DHT22;11450;50.818;4.382;2022-11-15T15:32:02;12.90;99.90
22568;DHT22;11450;50.818;4.382;2022-11-15T15:34:28;12.90;99.90
22568;DHT22;11450;50.818;4.382;2022-11-15T15:37:19;13.00;99.90
22568;DHT22;11450;50.818;4.382;2022-11-15T15:39:54;12.90;99.90
22568;DHT22;11450;50.818;4.382;2022-11-15T15:42:20;12.90;99.90
22568;DHT22;11450;50.818;4.382;2022-11-15T15:44:47;12.90;99.90
22568;DHT22;11450;50.818;4.382;2022-11-15T15:47:17;12.90;99.90
22568;DHT22;11450;50.818;4.382;2022-11-15T15:49:44;12.90;99.90
22568;DHT22;11450;50.818;4.382;2022-11-15T15:52:10;12.80;99.90
22568;DHT22;11450;50.818;4.382;2022-11-15T15:54:37;12.80;99.90
22568;DHT22;11450;50.818;4.382;2022-11-15T15:57:03;12.70;99.90
22568;DHT22;11450;50.818;4.382;2022-11-15T15:59:28;12.80;99.90
22568;DHT22;11450;50.818;4.382;2022-11-15T16:01:54;12.90;99.90
22568;DHT22;11450;50.818;4.382;2022-11-15T16:04:20;12.90;99.90
22568;DHT22;11450;50.818;4.382;2022-11-15T16:06:45;12.90;99.90
22568;DHT22;11450;50.818;4.382;2022-11-15T16:09:15;12.80;99.90
22568;DHT22;11450;50.818;4.382;2022-11-15T16:11:43;12.80;99.90
22568;DHT22;11450;50.818;4.382;2022-11-15T16:14:09;12.80;99.90
22568;DHT22;11450;50.818;4.382;2022-11-15T16:16:35;12.70;99.90
22568;DHT22;11450;50.818;4.382;2022-11-15T16:19:02;12.70;99.90
22568;DHT22;11450;50.818;4.382;2022-11-15T16:21:28;12.80;99.90
22568;DHT22;11450;50.818;4.382;2022-11-15T16:23:54;12.70;99.90
22568;DHT22;11450;50.818;4.382;2022-11-15T16:26:26;12.60;99.90
22568;DHT22;11450;50.818;4.382;2022-11-15T16:28:54;12.60;99.90
22568;DHT22;11450;50.818;4.382;2022-11-15T16:31:20;12.60;99.90
22568;DHT22;11450;50.818;4.382;2022-11-15T16:33:48;12.60;99.90
22568;DHT22;11450;50.818;4.382;2022-11-15T16:36:20;12.70;99.90
22568;DHT22;11450;50.818;4.382;2022-11-15T16:38:46;12.80;99.90
22568;DHT22;11450;50.818;4.382;2022-11-15T16:41:12;12.70;99.90
22568;DHT22;11450;50.818;4.382;2022-11-15T16:43:38;12.70;99.90
22568;DHT22;11450;50.818;4.382;2022-11-15T16:46:11;12.70;99.90
22568;DHT22;11450;50.818;4.382;2022-11-15T16:48:37;12.70;99.90
22568;DHT22;11450;50.818;4.382;2022-11-15T16:51:04;12.70;99.90
22568;DHT22;11450;50.818;4.382;2022-11-15T16:53:30;12.70;99.90
22568;DHT22;11450;50.818;4.382;2022-11-15T16:55:56;12.70;99.90
22568;DHT22;11450;50.818;4.382;2022-11-15T16:58:22;12.70;99.90
22568;DHT22;11450;50.818;4.382;2022-11-15T17:00:51;12.60;99.90
22568;DHT22;11450;50.818;4.382;2022-11-15T17:03:18;12.70;99.90
22568;DHT22;11450;50.818;4.382;2022-11-15T17:05:44;12.70;99.90
22568;DHT22;11450;50.818;4.382;2022-11-15T17:08:09;12.70;99.90
22568;DHT22;11450;50.818;4.382;2022-11-15T17:10:38;12.60;99.90
22568;DHT22;11450;50.818;4.382;2022-11-15T17:13:05;12.60;99.90
22568;DHT22;11450;50.818;4.382;2022-11-15T17:15:31;12.60;99.90
22568;DHT22;11450;50.818;4.382;2022-11-15T17:17:59;12.70;99.90
22568;DHT22;11450;50.818;4.382;2022-11-15T17:20:25;12.70;99.90
22568;DHT22;11450;50.818;4.382;2022-11-15T17:22:51;12.70;99.90